createdAt,value
2018-07-02T00:00:10.212Z,64.80
2018-07-02T00:02:43.226Z,64.80
2018-07-02T00:05:16.287Z,65.00
2018-07-02T00:07:49.350Z,65.00
2018-07-02T00:10:22.570Z,65.20
2018-07-02T00:12:55.639Z,65.30
2018-07-02T00:15:28.730Z,65.50
2018-07-02T00:18:01.831Z,65.50
2018-07-02T00:20:34.882Z,65.70
2018-07-02T00:23:07.886Z,65.60
2018-07-02T00:28:15.247Z,65.80
2018-07-02T00:30:49.345Z,65.90
2018-07-02T00:33:22.409Z,66.00
2018-07-02T00:35:56.132Z,66.20
2018-07-02T00:38:29.209Z,66.10
2018-07-02T00:41:02.279Z,66.20
2018-07-02T00:43:35.336Z,66.10
2018-07-02T00:46:08.371Z,66.30
2018-07-02T00:48:41.461Z,66.40
2018-07-02T00:51:15.606Z,66.50
2018-07-02T00:53:48.636Z,66.60
2018-07-02T00:56:22.049Z,66.40
2018-07-02T00:58:55.190Z,66.90
2018-07-02T01:01:29.012Z,67.20
2018-07-02T01:06:35.718Z,67.20
2018-07-02T01:09:09.817Z,67.30
2018-07-02T01:11:42.845Z,67.10
2018-07-02T01:14:15.853Z,67.10
2018-07-02T01:16:48.921Z,67.30
2018-07-02T01:19:21.925Z,67.20
2018-07-02T01:21:55.116Z,67.20
2018-07-02T01:24:28.160Z,67.20
2018-07-02T01:27:01.396Z,67.20
2018-07-02T01:29:34.516Z,67.10
2018-07-02T01:32:07.609Z,67.30
2018-07-02T01:34:40.622Z,67.30
2018-07-02T01:37:13.761Z,67.40
2018-07-02T01:39:46.822Z,67.40
2018-07-02T01:42:19.878Z,67.70
2018-07-02T01:44:52.888Z,67.40
2018-07-02T01:47:25.914Z,69.00
2018-07-02T01:50:00.647Z,68.00
2018-07-02T01:52:33.809Z,68.40
2018-07-02T01:55:06.880Z,68.40
2018-07-02T01:57:39.944Z,68.70
2018-07-02T02:00:13.030Z,68.50
2018-07-02T02:02:46.074Z,68.60
2018-07-02T02:05:19.111Z,68.70
2018-07-02T02:07:52.209Z,68.90
2018-07-02T02:10:25.363Z,69.00
2018-07-02T02:12:58.542Z,69.30
2018-07-02T02:15:31.629Z,69.30
2018-07-02T02:18:04.971Z,69.20
2018-07-02T02:20:38.031Z,69.30
2018-07-02T02:23:11.179Z,69.30
2018-07-02T02:28:17.059Z,69.70
2018-07-02T02:30:50.963Z,69.70
2018-07-02T02:33:24.158Z,69.60
2018-07-02T02:35:57.224Z,70.00
2018-07-02T02:38:30.269Z,69.90
2018-07-02T02:41:03.264Z,71.30
2018-07-02T02:43:36.350Z,71.70
2018-07-02T02:46:09.407Z,71.60
2018-07-02T02:48:42.447Z,71.40
2018-07-02T02:51:15.444Z,71.60
2018-07-02T02:56:21.308Z,71.70
2018-07-02T02:58:54.630Z,71.50
2018-07-02T03:01:27.688Z,71.20
2018-07-02T03:04:00.725Z,71.20
2018-07-02T03:06:33.739Z,71.00
2018-07-02T03:09:07.759Z,71.10
2018-07-02T03:11:40.819Z,71.90
2018-07-02T03:14:13.907Z,71.70
2018-07-02T03:16:46.954Z,72.10
2018-07-02T03:19:20.027Z,72.10
2018-07-02T03:21:53.237Z,72.70
2018-07-02T03:24:26.286Z,72.40
2018-07-02T03:26:59.351Z,72.20
2018-07-02T03:29:32.384Z,72.30
2018-07-02T03:32:05.436Z,72.30
2018-07-02T03:34:38.837Z,71.80
2018-07-02T03:37:12.093Z,72.20
2018-07-02T03:39:45.199Z,72.30
2018-07-02T03:42:18.277Z,72.50
2018-07-02T03:44:51.348Z,72.60
2018-07-02T03:47:24.401Z,73.00
2018-07-02T03:49:57.451Z,73.30
2018-07-02T03:52:30.469Z,73.20
2018-07-02T03:55:03.588Z,73.60
2018-07-02T03:57:36.630Z,73.20
2018-07-02T04:00:09.676Z,73.20
2018-07-02T04:02:42.706Z,73.50
2018-07-02T04:07:48.942Z,74.00
2018-07-02T04:10:21.990Z,74.90
2018-07-02T04:12:55.042Z,75.30
2018-07-02T04:15:28.074Z,75.90
2018-07-02T04:18:01.079Z,76.20
2018-07-02T04:20:34.106Z,76.40
2018-07-02T04:23:07.122Z,76.70
2018-07-02T04:25:40.186Z,77.70
2018-07-02T04:28:13.290Z,78.40
2018-07-02T04:30:46.314Z,77.50
2018-07-02T04:33:19.350Z,78.10
2018-07-02T04:35:52.447Z,78.30
2018-07-02T04:38:25.610Z,80.10
2018-07-02T04:40:58.719Z,80.30
2018-07-02T04:46:05.099Z,80.80
2018-07-02T04:48:38.168Z,81.50
2018-07-02T04:51:11.221Z,82.10
2018-07-02T04:53:44.259Z,84.40
2018-07-02T04:56:17.303Z,84.80
2018-07-02T04:58:50.353Z,84.90
2018-07-02T05:01:23.444Z,85.80
2018-07-02T05:06:29.288Z,88.10
2018-07-02T05:09:02.338Z,89.20
2018-07-02T05:11:35.403Z,88.00
2018-07-02T05:14:08.471Z,87.40
2018-07-02T05:16:41.508Z,89.40
2018-07-02T05:19:14.579Z,89.40
2018-07-02T05:21:47.586Z,90.30
2018-07-02T05:24:20.594Z,91.20
2018-07-02T05:26:53.610Z,91.00
2018-07-02T05:29:26.659Z,90.70
2018-07-02T05:31:59.698Z,90.90
2018-07-02T05:34:32.763Z,90.60
2018-07-02T05:37:05.782Z,90.90
2018-07-02T05:39:38.850Z,91.50
2018-07-02T05:42:11.901Z,92.50
2018-07-02T05:44:44.928Z,91.80
2018-07-02T05:47:18.044Z,92.10
2018-07-02T05:49:51.060Z,91.90
2018-07-02T05:52:24.089Z,91.30
2018-07-02T05:54:57.122Z,91.30
2018-07-02T05:57:30.224Z,90.20
2018-07-02T06:00:03.252Z,90.10
2018-07-02T06:02:36.435Z,90.60
2018-07-02T06:05:09.468Z,89.20
2018-07-02T06:07:42.552Z,88.20
2018-07-02T06:10:15.583Z,87.50
2018-07-02T06:12:48.653Z,87.50
2018-07-02T06:15:21.688Z,85.40
2018-07-02T06:17:54.779Z,84.80
2018-07-02T06:20:27.854Z,85.70
2018-07-02T06:23:00.946Z,85.00
2018-07-02T06:25:34.007Z,83.70
2018-07-02T06:28:07.046Z,82.60
2018-07-02T06:30:40.086Z,82.20
2018-07-02T06:33:13.096Z,80.50
2018-07-02T06:35:46.153Z,79.10
2018-07-02T06:38:19.174Z,80.00
2018-07-02T06:40:52.231Z,78.10
2018-07-02T06:43:25.378Z,76.80
2018-07-02T06:45:58.404Z,77.40
2018-07-02T06:48:31.472Z,74.80
2018-07-02T06:51:04.466Z,76.40
2018-07-02T06:53:37.527Z,73.40
2018-07-02T06:56:10.717Z,73.40
2018-07-02T06:58:43.802Z,72.80
2018-07-02T07:01:16.756Z,71.40
2018-07-02T07:03:49.817Z,73.20
2018-07-02T07:06:22.816Z,73.40
2018-07-02T07:08:55.911Z,71.60
2018-07-02T07:11:28.946Z,72.80
2018-07-02T07:14:02.480Z,68.80
2018-07-02T07:16:35.549Z,70.20
2018-07-02T07:19:08.723Z,68.90
2018-07-02T07:21:41.739Z,69.00
2018-07-02T07:24:14.787Z,68.70
2018-07-02T07:26:47.806Z,69.70
2018-07-02T07:29:20.965Z,70.70
2018-07-02T07:31:53.990Z,69.70
2018-07-02T07:34:27.014Z,70.00
2018-07-02T07:37:00.067Z,72.90
2018-07-02T07:39:33.175Z,70.10
2018-07-02T07:42:06.453Z,69.30
2018-07-02T07:44:39.493Z,68.60
2018-07-02T07:47:12.561Z,68.50
2018-07-02T07:49:45.607Z,68.40
2018-07-02T07:52:18.785Z,68.40
2018-07-02T07:54:51.931Z,66.00
2018-07-02T07:57:25.025Z,65.70
2018-07-02T07:59:58.088Z,65.10
2018-07-02T08:02:31.183Z,67.10
2018-07-02T08:05:04.984Z,65.90
2018-07-02T08:07:38.174Z,66.70
2018-07-02T08:10:11.259Z,66.60
2018-07-02T08:15:17.366Z,66.70
2018-07-02T08:17:50.371Z,66.00
2018-07-02T08:20:23.779Z,66.90
2018-07-02T08:22:56.898Z,65.00
2018-07-02T08:25:29.963Z,69.20
2018-07-02T08:28:03.023Z,70.30
2018-07-02T08:30:36.085Z,65.20
2018-07-02T08:33:09.178Z,62.70
2018-07-02T08:35:42.533Z,61.10
2018-07-02T08:38:15.547Z,60.80
2018-07-02T08:40:48.633Z,61.60
2018-07-02T08:43:21.742Z,61.30
2018-07-02T08:45:54.774Z,63.80
2018-07-02T08:48:27.776Z,64.30
2018-07-02T08:51:00.847Z,62.40
2018-07-02T08:53:33.886Z,64.40
2018-07-02T08:56:06.980Z,63.80
2018-07-02T08:58:40.031Z,63.50
2018-07-02T09:01:13.093Z,64.40
2018-07-02T09:03:46.132Z,65.40
2018-07-02T09:06:19.248Z,62.50
2018-07-02T09:08:52.288Z,64.40
2018-07-02T09:11:25.336Z,62.70
2018-07-02T09:13:58.414Z,61.30
2018-07-02T09:16:31.603Z,62.40
2018-07-02T09:19:04.746Z,62.20
2018-07-02T09:21:37.852Z,59.90
2018-07-02T09:24:10.893Z,61.40
2018-07-02T09:26:43.944Z,60.90
2018-07-02T09:29:16.972Z,59.90
2018-07-02T09:31:50.107Z,58.70
2018-07-02T09:34:23.327Z,61.80
2018-07-02T09:36:56.387Z,58.50
2018-07-02T09:39:29.508Z,57.50
2018-07-02T09:42:02.538Z,58.70
2018-07-02T09:44:35.538Z,59.30
2018-07-02T09:47:08.647Z,58.50
2018-07-02T09:49:41.827Z,56.60
2018-07-02T09:52:14.907Z,56.20
2018-07-02T09:54:47.948Z,54.90
2018-07-02T09:57:21.079Z,52.20
2018-07-02T09:59:54.079Z,54.70
2018-07-02T10:02:27.269Z,54.60
2018-07-02T10:05:00.404Z,54.00
2018-07-02T10:07:34.194Z,54.30
2018-07-02T10:10:07.310Z,52.80
2018-07-02T10:12:40.443Z,56.50
2018-07-02T10:15:13.428Z,55.40
2018-07-02T10:17:46.484Z,52.10
2018-07-02T10:20:19.607Z,53.40
2018-07-02T10:22:52.719Z,56.50
2018-07-02T10:25:25.728Z,47.60
2018-07-02T10:27:58.764Z,51.00
2018-07-02T10:30:31.789Z,48.40
2018-07-02T10:33:04.952Z,49.10
2018-07-02T10:35:37.946Z,48.60
2018-07-02T10:38:11.027Z,48.80
2018-07-02T10:40:44.056Z,46.20
2018-07-02T10:45:49.988Z,47.50
2018-07-02T10:48:23.027Z,46.40
2018-07-02T10:50:56.066Z,47.00
2018-07-02T10:53:29.114Z,47.10
2018-07-02T10:56:02.193Z,48.00
2018-07-02T10:58:35.229Z,48.00
2018-07-02T11:01:08.316Z,48.90
2018-07-02T11:03:41.368Z,49.10
2018-07-02T11:06:14.407Z,47.50
2018-07-02T11:08:47.494Z,44.70
2018-07-02T11:11:20.629Z,45.00
2018-07-02T11:13:53.712Z,43.50
2018-07-02T11:16:26.756Z,44.30
2018-07-02T11:18:59.852Z,44.80
2018-07-02T11:21:32.893Z,44.60
2018-07-02T11:24:05.980Z,45.20
2018-07-02T11:26:39.055Z,46.60
2018-07-02T11:29:12.146Z,46.10
2018-07-02T11:31:45.195Z,47.60
2018-07-02T11:34:18.311Z,46.70
2018-07-02T11:36:51.339Z,45.30
2018-07-02T11:39:24.354Z,41.90
2018-07-02T11:41:57.396Z,43.20
2018-07-02T11:44:30.619Z,41.50
2018-07-02T11:47:03.695Z,42.60
2018-07-02T11:49:36.749Z,40.80
2018-07-02T11:52:09.754Z,42.10
2018-07-02T11:54:42.811Z,42.00
2018-07-02T11:57:15.859Z,43.00
2018-07-02T11:59:48.899Z,43.00
2018-07-02T12:02:21.939Z,42.90
2018-07-02T12:04:55.003Z,42.20
2018-07-02T12:07:28.032Z,40.00
2018-07-02T12:10:01.732Z,40.40
2018-07-02T12:12:34.760Z,37.50
2018-07-02T12:15:07.823Z,41.40
2018-07-02T12:17:40.861Z,40.30
2018-07-02T12:20:13.906Z,40.10
2018-07-02T12:22:46.935Z,37.90
2018-07-02T12:25:19.962Z,36.00
2018-07-02T12:27:53.002Z,34.40
2018-07-02T12:30:26.027Z,36.70
2018-07-02T12:32:59.049Z,36.60
2018-07-02T12:35:32.133Z,33.50
2018-07-02T12:38:05.183Z,34.90
2018-07-02T12:40:38.232Z,36.20
2018-07-02T12:43:11.310Z,35.60
2018-07-02T12:45:44.422Z,36.10
2018-07-02T12:48:17.475Z,36.80
2018-07-02T12:50:50.520Z,37.70
2018-07-02T12:53:23.552Z,36.30
2018-07-02T12:55:56.603Z,35.20
2018-07-02T12:58:29.612Z,33.30
2018-07-02T13:01:02.683Z,33.60
2018-07-02T13:03:35.690Z,34.40
2018-07-02T13:06:08.701Z,31.50
2018-07-02T13:08:41.699Z,30.00
2018-07-02T13:11:14.751Z,31.70
2018-07-02T13:13:47.838Z,33.10
2018-07-02T13:18:53.684Z,32.50
2018-07-02T13:21:26.708Z,32.10
2018-07-02T13:23:59.740Z,31.70
2018-07-02T13:26:33.165Z,30.80
2018-07-02T13:29:06.162Z,32.50
2018-07-02T13:31:39.219Z,30.90
2018-07-02T13:34:12.203Z,31.30
2018-07-02T13:36:45.200Z,32.60
2018-07-02T13:39:18.224Z,33.40
2018-07-02T13:41:51.443Z,32.80
2018-07-02T13:44:24.452Z,30.60
2018-07-02T13:46:57.465Z,31.20
2018-07-02T13:49:30.521Z,29.10
2018-07-02T13:52:03.556Z,30.00
2018-07-02T13:54:36.563Z,31.10
2018-07-02T13:57:09.570Z,31.20
2018-07-02T13:59:42.567Z,30.00
2018-07-02T14:02:15.593Z,27.50
2018-07-02T14:04:48.628Z,27.60
2018-07-02T14:09:54.568Z,31.50
2018-07-02T14:12:27.596Z,31.00
2018-07-02T14:15:00.623Z,32.70
2018-07-02T14:17:33.684Z,31.30
2018-07-02T14:20:06.904Z,30.30
2018-07-02T14:22:39.975Z,31.20
2018-07-02T14:25:12.988Z,30.30
2018-07-02T14:27:46.112Z,31.20
2018-07-02T14:30:19.113Z,31.00
2018-07-02T14:32:52.212Z,30.40
2018-07-02T14:35:25.186Z,30.60
2018-07-02T14:37:59.263Z,30.20
2018-07-02T14:40:32.432Z,31.30
2018-07-02T14:43:05.748Z,31.00
2018-07-02T14:45:38.875Z,31.00
2018-07-02T14:48:11.816Z,30.50
2018-07-02T14:50:44.809Z,30.60
2018-07-02T14:53:17.829Z,31.00
2018-07-02T14:55:50.825Z,33.00
2018-07-02T14:58:23.929Z,31.60
2018-07-02T15:00:56.990Z,30.80
2018-07-02T15:03:30.010Z,29.70
2018-07-02T15:06:03.024Z,31.70
2018-07-02T15:08:36.055Z,31.50
2018-07-02T15:11:09.076Z,31.20
2018-07-02T15:13:42.088Z,30.50
2018-07-02T15:16:15.205Z,30.40
2018-07-02T15:18:48.258Z,30.50
2018-07-02T15:21:21.314Z,30.20
2018-07-02T15:23:54.336Z,29.90
2018-07-02T15:26:27.360Z,29.00
2018-07-02T15:29:00.512Z,29.60
2018-07-02T15:31:33.557Z,28.70
2018-07-02T15:34:06.585Z,29.50
2018-07-02T15:36:39.618Z,30.00
2018-07-02T15:39:12.626Z,30.30
2018-07-02T15:41:45.740Z,30.30
2018-07-02T15:44:18.684Z,30.80
2018-07-02T15:46:51.894Z,30.70
2018-07-02T15:49:24.875Z,31.30
2018-07-02T15:51:57.897Z,30.40
2018-07-02T15:54:30.930Z,31.10
2018-07-02T15:57:03.999Z,31.40
2018-07-02T15:59:37.053Z,31.10
2018-07-02T16:02:10.120Z,31.60
2018-07-02T16:04:43.293Z,33.10
2018-07-02T16:07:16.544Z,33.20
2018-07-02T16:09:49.875Z,34.20
2018-07-02T16:12:22.927Z,34.60
2018-07-02T16:14:56.262Z,34.10
2018-07-02T16:17:29.335Z,34.90
2018-07-02T16:20:02.404Z,35.50
2018-07-02T16:22:35.413Z,35.40
2018-07-02T16:25:08.434Z,35.00
2018-07-02T16:27:41.492Z,36.40
2018-07-02T16:30:14.507Z,37.20
2018-07-02T16:32:47.556Z,37.30
2018-07-02T16:35:20.616Z,37.70
2018-07-02T16:37:53.623Z,38.60
2018-07-02T16:40:26.748Z,37.90
2018-07-02T16:42:59.814Z,38.00
2018-07-02T16:45:32.911Z,37.60
2018-07-02T16:48:06.337Z,36.30
2018-07-02T16:50:39.479Z,37.40
2018-07-02T16:53:12.577Z,36.60
2018-07-02T16:55:45.716Z,37.50
2018-07-02T16:58:18.745Z,37.20
2018-07-02T17:00:51.864Z,37.50
2018-07-02T17:03:24.881Z,37.40
2018-07-02T17:05:57.958Z,37.70
2018-07-02T17:08:31.104Z,37.40
2018-07-02T17:11:04.287Z,37.60
2018-07-02T17:13:37.412Z,37.80
2018-07-02T17:16:10.476Z,37.90
2018-07-02T17:18:43.511Z,38.40
2018-07-02T17:21:16.589Z,37.20
2018-07-02T17:23:49.659Z,36.00
2018-07-02T17:26:22.783Z,36.90
2018-07-02T17:28:55.867Z,37.70
2018-07-02T17:31:28.919Z,38.20
2018-07-02T17:34:01.985Z,39.40
2018-07-02T17:39:09.286Z,39.40
2018-07-02T17:41:42.330Z,39.70
2018-07-02T17:44:15.643Z,40.30
2018-07-02T17:46:48.675Z,40.90
2018-07-02T17:49:21.751Z,41.20
2018-07-02T17:51:56.254Z,40.40
2018-07-02T17:54:29.270Z,41.10
2018-07-02T17:57:02.341Z,41.10
2018-07-02T17:59:35.419Z,41.60
2018-07-02T18:02:08.482Z,41.50
2018-07-02T18:04:41.539Z,41.80
2018-07-02T18:07:14.632Z,41.60
2018-07-02T18:09:47.683Z,42.00
2018-07-02T18:12:20.755Z,42.40
2018-07-02T18:14:53.811Z,43.10
2018-07-02T18:17:26.840Z,42.20
2018-07-02T18:19:59.862Z,42.00
2018-07-02T18:22:32.915Z,42.70
2018-07-02T18:25:05.934Z,43.00
2018-07-02T18:27:38.967Z,43.00
2018-07-02T18:30:12.020Z,43.00
2018-07-02T18:32:45.143Z,42.90
2018-07-02T18:35:18.194Z,43.60
2018-07-02T18:37:51.232Z,43.80
2018-07-02T18:40:24.225Z,44.60
2018-07-02T18:42:57.447Z,43.90
2018-07-02T18:45:30.480Z,44.20
2018-07-02T18:48:03.552Z,44.20
2018-07-02T18:50:36.590Z,44.70
2018-07-02T18:53:09.682Z,44.60
2018-07-02T18:55:42.740Z,44.40
2018-07-02T18:58:15.818Z,44.40
2018-07-02T19:00:48.859Z,45.00
2018-07-02T19:03:22.186Z,45.70
2018-07-02T19:05:55.295Z,45.20
2018-07-02T19:08:30.407Z,45.10
2018-07-02T19:11:03.451Z,45.00
2018-07-02T19:13:36.524Z,45.10
2018-07-02T19:16:09.689Z,45.80
2018-07-02T19:18:42.740Z,46.50
2018-07-02T19:21:15.978Z,46.40
2018-07-02T19:23:49.149Z,47.70
2018-07-02T19:26:22.596Z,47.40
2018-07-02T19:28:55.610Z,48.10
2018-07-02T19:31:28.617Z,48.20
2018-07-02T19:34:01.704Z,48.10
2018-07-02T19:39:10.426Z,48.60
2018-07-02T19:41:43.462Z,48.70
2018-07-02T19:44:16.487Z,49.10
2018-07-02T19:46:49.483Z,48.90
2018-07-02T19:49:22.502Z,49.10
2018-07-02T19:51:55.557Z,49.70
2018-07-02T19:54:32.093Z,50.40
2018-07-02T19:57:06.352Z,50.30
2018-07-02T19:59:40.647Z,50.70
2018-07-02T20:02:13.688Z,51.30
2018-07-02T20:04:46.733Z,51.70
2018-07-02T20:07:19.776Z,52.10
2018-07-02T20:09:52.853Z,52.30
2018-07-02T20:12:25.928Z,52.40
2018-07-02T20:14:59.333Z,52.80
2018-07-02T20:17:32.360Z,52.80
2018-07-02T20:20:08.459Z,52.50
2018-07-02T20:22:41.500Z,51.50
2018-07-02T20:25:14.647Z,51.50
2018-07-02T20:27:47.688Z,51.40
2018-07-02T20:30:20.801Z,51.40
2018-07-02T20:32:53.874Z,52.00
2018-07-02T20:35:27.004Z,52.30
2018-07-02T20:38:00.053Z,52.10
2018-07-02T20:40:33.146Z,52.10
2018-07-02T20:43:06.319Z,52.20
2018-07-02T20:45:39.407Z,52.30
2018-07-02T20:48:12.442Z,52.40
2018-07-02T20:50:45.492Z,52.40
2018-07-02T20:53:18.663Z,52.40
2018-07-02T20:55:51.713Z,52.40
2018-07-02T20:58:24.731Z,52.40
2018-07-02T21:00:57.780Z,52.70
2018-07-02T21:03:30.868Z,52.50
2018-07-02T21:06:03.981Z,52.80
2018-07-02T21:08:37.047Z,52.90
2018-07-02T21:11:10.132Z,53.60
2018-07-02T21:13:43.229Z,53.70
2018-07-02T21:16:16.336Z,53.80
2018-07-02T21:18:49.403Z,54.00
2018-07-02T21:21:22.555Z,54.40
2018-07-02T21:23:55.602Z,54.60
2018-07-02T21:26:28.692Z,55.10
2018-07-02T21:29:01.802Z,55.50
2018-07-02T21:31:34.839Z,55.50
2018-07-02T21:34:07.911Z,55.80
2018-07-02T21:36:41.001Z,56.60
2018-07-02T21:39:14.174Z,56.00
2018-07-02T21:41:47.376Z,56.20
2018-07-02T21:44:20.368Z,56.40
2018-07-02T21:46:53.430Z,56.50
2018-07-02T21:49:26.450Z,56.80
2018-07-02T21:54:32.393Z,57.20
2018-07-02T21:57:06.870Z,57.20
2018-07-02T21:59:39.897Z,57.50
2018-07-02T22:02:12.930Z,57.50
2018-07-02T22:04:45.946Z,57.40
2018-07-02T22:07:19.017Z,57.80
2018-07-02T22:09:52.097Z,57.90
2018-07-02T22:12:25.179Z,57.90
2018-07-02T22:14:58.279Z,58.00
2018-07-02T22:17:31.399Z,58.20
2018-07-02T22:20:06.643Z,58.20
2018-07-02T22:22:39.714Z,58.30
2018-07-02T22:25:12.768Z,58.40
2018-07-02T22:27:45.838Z,58.60
2018-07-02T22:30:18.961Z,59.00
2018-07-02T22:32:51.993Z,59.10
2018-07-02T22:35:25.071Z,59.20
2018-07-02T22:37:58.082Z,59.40
2018-07-02T22:40:31.109Z,59.50
2018-07-02T22:43:04.166Z,59.50
2018-07-02T22:45:37.226Z,59.70
2018-07-02T22:48:10.466Z,59.80
2018-07-02T22:50:43.510Z,60.00
2018-07-02T22:53:16.606Z,60.10
2018-07-02T22:55:58.477Z,60.10
2018-07-02T22:58:31.506Z,60.40
2018-07-02T23:01:04.594Z,60.50
2018-07-02T23:03:37.729Z,60.70
2018-07-02T23:06:10.785Z,60.50
2018-07-02T23:08:43.865Z,60.90
2018-07-02T23:11:16.954Z,60.90
2018-07-02T23:13:50.051Z,60.90
2018-07-02T23:16:23.137Z,61.00
2018-07-02T23:18:56.253Z,61.40
2018-07-02T23:21:29.338Z,61.40
2018-07-02T23:24:02.359Z,61.50
2018-07-02T23:26:35.440Z,61.60
2018-07-02T23:29:08.555Z,61.80
2018-07-02T23:31:41.627Z,62.10
2018-07-02T23:34:14.721Z,62.30
2018-07-02T23:36:47.804Z,62.30
2018-07-02T23:39:20.852Z,62.60
2018-07-02T23:41:53.849Z,62.80
2018-07-02T23:44:26.893Z,63.00
2018-07-02T23:46:59.931Z,63.20
2018-07-02T23:49:33.018Z,63.20
2018-07-02T23:52:06.031Z,63.30
2018-07-02T23:54:39.088Z,63.50
2018-07-02T23:57:12.164Z,63.50
2018-07-02T23:59:45.244Z,63.70
